sensor_id;sensor_type;location;lat;lon;timestamp;P1;durP1;ratioP1;P2;durP2;ratioP2
69008;SDS011;56065;52.472;13.380;2022-10-30T00:01:16;22.77;;;12.13;;
69008;SDS011;56065;52.472;13.380;2022-10-30T00:03:42;25.77;;;13.47;;
69008;SDS011;56065;52.472;13.380;2022-10-30T00:06:07;23.30;;;12.40;;
69008;SDS011;56065;52.472;13.380;2022-10-30T00:08:32;24.33;;;13.05;;
69008;SDS011;56065;52.472;13.380;2022-10-30T00:11:05;21.90;;;12.87;;
69008;SDS011;56065;52.472;13.380;2022-10-30T00:13:35;26.67;;;11.60;;
69008;SDS011;56065;52.472;13.380;2022-10-30T00:16:02;27.50;;;12.88;;
69008;SDS011;56065;52.472;13.380;2022-10-30T00:18:29;27.33;;;14.80;;
69008;SDS011;56065;52.472;13.380;2022-10-30T00:20:54;24.73;;;14.53;;
69008;SDS011;56065;52.472;13.380;2022-10-30T00:23:20;27.07;;;14.03;;
69008;SDS011;56065;52.472;13.380;2022-10-30T00:25:45;29.17;;;14.20;;
69008;SDS011;56065;52.472;13.380;2022-10-30T00:28:10;32.37;;;14.50;;
69008;SDS011;56065;52.472;13.380;2022-10-30T00:30:36;28.50;;;14.67;;
69008;SDS011;56065;52.472;13.380;2022-10-30T00:33:01;27.23;;;14.93;;
69008;SDS011;56065;52.472;13.380;2022-10-30T00:35:27;25.65;;;14.15;;
69008;SDS011;56065;52.472;13.380;2022-10-30T00:37:52;25.63;;;13.23;;
69008;SDS011;56065;52.472;13.380;2022-10-30T00:40:21;27.90;;;14.03;;
69008;SDS011;56065;52.472;13.380;2022-10-30T00:42:46;26.38;;;13.68;;
69008;SDS011;56065;52.472;13.380;2022-10-30T00:45:12;23.67;;;13.30;;
69008;SDS011;56065;52.472;13.380;2022-10-30T00:48:13;25.42;;;13.63;;
69008;SDS011;56065;52.472;13.380;2022-10-30T00:50:34;23.73;;;12.85;;
69008;SDS011;56065;52.472;13.380;2022-10-30T00:53:11;23.73;;;12.68;;
69008;SDS011;56065;52.472;13.380;2022-10-30T00:55:51;26.33;;;12.90;;
69008;SDS011;56065;52.472;13.380;2022-10-30T00:58:21;25.63;;;12.90;;
69008;SDS011;56065;52.472;13.380;2022-10-30T01:00:52;27.63;;;14.93;;
69008;SDS011;56065;52.472;13.380;2022-10-30T01:03:20;31.90;;;14.82;;
69008;SDS011;56065;52.472;13.380;2022-10-30T01:05:48;29.00;;;14.98;;
69008;SDS011;56065;52.472;13.380;2022-10-30T01:08:17;29.40;;;16.25;;
69008;SDS011;56065;52.472;13.380;2022-10-30T01:10:43;38.97;;;17.53;;
69008;SDS011;56065;52.472;13.380;2022-10-30T01:13:09;32.08;;;16.65;;
69008;SDS011;56065;52.472;13.380;2022-10-30T01:15:37;37.10;;;17.83;;
69008;SDS011;56065;52.472;13.380;2022-10-30T01:18:18;33.72;;;17.88;;
69008;SDS011;56065;52.472;13.380;2022-10-30T01:26:13;26.65;;;13.90;;
69008;SDS011;56065;52.472;13.380;2022-10-30T01:31:35;31.85;;;13.80;;
69008;SDS011;56065;52.472;13.380;2022-10-30T01:34:24;32.43;;;15.07;;
69008;SDS011;56065;52.472;13.380;2022-10-30T01:39:27;26.40;;;14.70;;
69008;SDS011;56065;52.472;13.380;2022-10-30T01:41:56;26.42;;;15.02;;
69008;SDS011;56065;52.472;13.380;2022-10-30T01:44:24;27.63;;;14.00;;
69008;SDS011;56065;52.472;13.380;2022-10-30T01:49:39;28.35;;;14.57;;
69008;SDS011;56065;52.472;13.380;2022-10-30T01:57:50;31.45;;;14.75;;
69008;SDS011;56065;52.472;13.380;2022-10-30T02:00:27;31.02;;;15.32;;
69008;SDS011;56065;52.472;13.380;2022-10-30T02:02:52;31.07;;;16.23;;
69008;SDS011;56065;52.472;13.380;2022-10-30T02:05:26;28.17;;;15.80;;
69008;SDS011;56065;52.472;13.380;2022-10-30T02:08:01;26.75;;;15.20;;
69008;SDS011;56065;52.472;13.380;2022-10-30T02:10:27;23.30;;;13.50;;
69008;SDS011;56065;52.472;13.380;2022-10-30T02:12:54;26.30;;;14.77;;
69008;SDS011;56065;52.472;13.380;2022-10-30T02:15:19;27.33;;;15.90;;
69008;SDS011;56065;52.472;13.380;2022-10-30T02:17:45;33.27;;;15.93;;
69008;SDS011;56065;52.472;13.380;2022-10-30T02:20:15;26.10;;;14.30;;
69008;SDS011;56065;52.472;13.380;2022-10-30T02:22:41;31.70;;;16.67;;
69008;SDS011;56065;52.472;13.380;2022-10-30T02:25:07;29.73;;;15.48;;
69008;SDS011;56065;52.472;13.380;2022-10-30T02:27:33;32.03;;;15.40;;
69008;SDS011;56065;52.472;13.380;2022-10-30T02:29:58;28.83;;;15.40;;
69008;SDS011;56065;52.472;13.380;2022-10-30T02:32:24;32.70;;;15.98;;
69008;SDS011;56065;52.472;13.380;2022-10-30T02:34:50;32.45;;;15.43;;
69008;SDS011;56065;52.472;13.380;2022-10-30T02:37:15;30.10;;;14.57;;
69008;SDS011;56065;52.472;13.380;2022-10-30T02:39:40;23.97;;;14.23;;
69008;SDS011;56065;52.472;13.380;2022-10-30T02:42:05;26.30;;;13.73;;
69008;SDS011;56065;52.472;13.380;2022-10-30T02:44:31;23.03;;;12.80;;
69008;SDS011;56065;52.472;13.380;2022-10-30T02:46:56;27.07;;;13.87;;
69008;SDS011;56065;52.472;13.380;2022-10-30T02:49:22;28.85;;;14.88;;
69008;SDS011;56065;52.472;13.380;2022-10-30T02:51:47;28.33;;;15.13;;
69008;SDS011;56065;52.472;13.380;2022-10-30T02:54:12;24.43;;;14.10;;
69008;SDS011;56065;52.472;13.380;2022-10-30T02:56:41;25.53;;;13.57;;
69008;SDS011;56065;52.472;13.380;2022-10-30T02:59:06;24.52;;;13.07;;
69008;SDS011;56065;52.472;13.380;2022-10-30T03:01:31;25.57;;;12.73;;
69008;SDS011;56065;52.472;13.380;2022-10-30T03:03:57;26.17;;;13.00;;
69008;SDS011;56065;52.472;13.380;2022-10-30T03:06:22;24.37;;;13.10;;
69008;SDS011;56065;52.472;13.380;2022-10-30T03:08:47;24.00;;;13.30;;
69008;SDS011;56065;52.472;13.380;2022-10-30T03:11:14;22.83;;;13.63;;
69008;SDS011;56065;52.472;13.380;2022-10-30T03:13:40;22.52;;;12.07;;
69008;SDS011;56065;52.472;13.380;2022-10-30T03:16:17;27.00;;;13.13;;
69008;SDS011;56065;52.472;13.380;2022-10-30T03:18:45;21.90;;;11.95;;
69008;SDS011;56065;52.472;13.380;2022-10-30T03:21:12;23.10;;;12.82;;
69008;SDS011;56065;52.472;13.380;2022-10-30T03:23:39;25.42;;;12.50;;
69008;SDS011;56065;52.472;13.380;2022-10-30T03:26:05;26.80;;;12.57;;
69008;SDS011;56065;52.472;13.380;2022-10-30T03:28:30;24.53;;;12.97;;
69008;SDS011;56065;52.472;13.380;2022-10-30T03:30:57;23.92;;;11.95;;
69008;SDS011;56065;52.472;13.380;2022-10-30T03:33:27;24.98;;;13.05;;
69008;SDS011;56065;52.472;13.380;2022-10-30T03:35:52;22.27;;;12.10;;
69008;SDS011;56065;52.472;13.380;2022-10-30T03:38:18;20.63;;;11.33;;
69008;SDS011;56065;52.472;13.380;2022-10-30T03:40:43;27.90;;;14.03;;
69008;SDS011;56065;52.472;13.380;2022-10-30T03:43:08;23.30;;;12.13;;
69008;SDS011;56065;52.472;13.380;2022-10-30T03:45:35;23.52;;;13.07;;
69008;SDS011;56065;52.472;13.380;2022-10-30T03:48:00;25.47;;;11.37;;
69008;SDS011;56065;52.472;13.380;2022-10-30T03:50:27;23.05;;;11.63;;
69008;SDS011;56065;52.472;13.380;2022-10-30T03:52:53;25.03;;;12.70;;
69008;SDS011;56065;52.472;13.380;2022-10-30T03:55:18;20.63;;;11.50;;
69008;SDS011;56065;52.472;13.380;2022-10-30T03:57:44;24.23;;;11.73;;
69008;SDS011;56065;52.472;13.380;2022-10-30T04:00:10;25.07;;;12.37;;
69008;SDS011;56065;52.472;13.380;2022-10-30T04:02:37;26.48;;;12.75;;
69008;SDS011;56065;52.472;13.380;2022-10-30T04:05:02;29.33;;;13.20;;
69008;SDS011;56065;52.472;13.380;2022-10-30T04:07:28;26.00;;;12.27;;
69008;SDS011;56065;52.472;13.380;2022-10-30T04:09:53;24.67;;;11.60;;
69008;SDS011;56065;52.472;13.380;2022-10-30T04:12:19;23.67;;;12.33;;
69008;SDS011;56065;52.472;13.380;2022-10-30T04:14:44;25.17;;;12.00;;
69008;SDS011;56065;52.472;13.380;2022-10-30T04:17:10;26.40;;;12.23;;
69008;SDS011;56065;52.472;13.380;2022-10-30T04:19:35;24.73;;;11.70;;
69008;SDS011;56065;52.472;13.380;2022-10-30T04:22:01;26.67;;;12.50;;
69008;SDS011;56065;52.472;13.380;2022-10-30T04:24:26;21.13;;;11.50;;
69008;SDS011;56065;52.472;13.380;2022-10-30T04:26:51;25.63;;;12.17;;
69008;SDS011;56065;52.472;13.380;2022-10-30T04:29:17;22.30;;;12.10;;
69008;SDS011;56065;52.472;13.380;2022-10-30T04:31:42;23.77;;;12.67;;
69008;SDS011;56065;52.472;13.380;2022-10-30T04:34:07;22.27;;;12.57;;
69008;SDS011;56065;52.472;13.380;2022-10-30T04:36:33;25.43;;;12.73;;
69008;SDS011;56065;52.472;13.380;2022-10-30T04:38:58;24.40;;;11.90;;
69008;SDS011;56065;52.472;13.380;2022-10-30T04:41:25;20.33;;;12.02;;
69008;SDS011;56065;52.472;13.380;2022-10-30T04:43:50;24.50;;;11.97;;
69008;SDS011;56065;52.472;13.380;2022-10-30T04:46:16;25.90;;;12.30;;
69008;SDS011;56065;52.472;13.380;2022-10-30T04:48:42;23.02;;;12.70;;
69008;SDS011;56065;52.472;13.380;2022-10-30T04:51:08;24.67;;;11.65;;
69008;SDS011;56065;52.472;13.380;2022-10-30T04:53:35;23.70;;;12.10;;
69008;SDS011;56065;52.472;13.380;2022-10-30T04:56:02;23.37;;;11.80;;
69008;SDS011;56065;52.472;13.380;2022-10-30T04:58:27;23.38;;;11.07;;
69008;SDS011;56065;52.472;13.380;2022-10-30T05:00:53;20.90;;;10.37;;
69008;SDS011;56065;52.472;13.380;2022-10-30T05:03:19;21.43;;;10.70;;
69008;SDS011;56065;52.472;13.380;2022-10-30T05:08:45;25.35;;;12.10;;
69008;SDS011;56065;52.472;13.380;2022-10-30T05:11:11;21.47;;;11.73;;
69008;SDS011;56065;52.472;13.380;2022-10-30T05:13:36;22.17;;;12.20;;
69008;SDS011;56065;52.472;13.380;2022-10-30T05:16:02;28.38;;;11.82;;
69008;SDS011;56065;52.472;13.380;2022-10-30T05:18:27;21.93;;;11.60;;
69008;SDS011;56065;52.472;13.380;2022-10-30T05:20:52;20.50;;;11.27;;
69008;SDS011;56065;52.472;13.380;2022-10-30T05:23:18;21.80;;;11.40;;
69008;SDS011;56065;52.472;13.380;2022-10-30T05:25:43;21.83;;;11.20;;
69008;SDS011;56065;52.472;13.380;2022-10-30T05:28:08;25.57;;;12.10;;
69008;SDS011;56065;52.472;13.380;2022-10-30T05:30:34;26.02;;;12.10;;
69008;SDS011;56065;52.472;13.380;2022-10-30T05:33:03;24.13;;;11.13;;
69008;SDS011;56065;52.472;13.380;2022-10-30T05:35:30;24.90;;;12.65;;
69008;SDS011;56065;52.472;13.380;2022-10-30T05:38:00;22.85;;;10.82;;
69008;SDS011;56065;52.472;13.380;2022-10-30T05:40:26;24.38;;;12.23;;
69008;SDS011;56065;52.472;13.380;2022-10-30T05:42:52;23.75;;;11.40;;
69008;SDS011;56065;52.472;13.380;2022-10-30T05:45:18;24.20;;;11.13;;
69008;SDS011;56065;52.472;13.380;2022-10-30T05:47:43;25.23;;;10.70;;
69008;SDS011;56065;52.472;13.380;2022-10-30T05:50:17;22.85;;;11.38;;
69008;SDS011;56065;52.472;13.380;2022-10-30T05:52:43;26.27;;;11.20;;
69008;SDS011;56065;52.472;13.380;2022-10-30T05:55:08;19.57;;;10.63;;
69008;SDS011;56065;52.472;13.380;2022-10-30T05:57:33;28.77;;;12.68;;
69008;SDS011;56065;52.472;13.380;2022-10-30T05:59:59;24.07;;;10.40;;
69008;SDS011;56065;52.472;13.380;2022-10-30T06:02:24;21.17;;;9.97;;
69008;SDS011;56065;52.472;13.380;2022-10-30T06:04:49;24.20;;;9.77;;
69008;SDS011;56065;52.472;13.380;2022-10-30T06:07:15;26.63;;;10.70;;
69008;SDS011;56065;52.472;13.380;2022-10-30T06:09:40;21.97;;;10.80;;
69008;SDS011;56065;52.472;13.380;2022-10-30T06:12:05;20.27;;;9.90;;
69008;SDS011;56065;52.472;13.380;2022-10-30T06:14:31;23.88;;;10.68;;
69008;SDS011;56065;52.472;13.380;2022-10-30T06:16:56;21.97;;;11.10;;
69008;SDS011;56065;52.472;13.380;2022-10-30T06:19:22;21.93;;;10.33;;
69008;SDS011;56065;52.472;13.380;2022-10-30T06:21:47;18.20;;;9.53;;
69008;SDS011;56065;52.472;13.380;2022-10-30T06:24:12;19.80;;;10.27;;
69008;SDS011;56065;52.472;13.380;2022-10-30T06:26:38;19.15;;;9.32;;
69008;SDS011;56065;52.472;13.380;2022-10-30T06:29:04;19.13;;;9.30;;
69008;SDS011;56065;52.472;13.380;2022-10-30T06:31:29;17.10;;;9.13;;
69008;SDS011;56065;52.472;13.380;2022-10-30T06:33:54;20.05;;;9.90;;
69008;SDS011;56065;52.472;13.380;2022-10-30T06:36:20;19.10;;;9.47;;
69008;SDS011;56065;52.472;13.380;2022-10-30T06:38:45;18.13;;;8.57;;
69008;SDS011;56065;52.472;13.380;2022-10-30T06:41:11;19.93;;;8.77;;
69008;SDS011;56065;52.472;13.380;2022-10-30T06:43:36;16.40;;;8.63;;
69008;SDS011;56065;52.472;13.380;2022-10-30T06:46:01;18.10;;;8.80;;
69008;SDS011;56065;52.472;13.380;2022-10-30T06:48:27;18.37;;;8.37;;
69008;SDS011;56065;52.472;13.380;2022-10-30T06:50:55;21.57;;;9.17;;
69008;SDS011;56065;52.472;13.380;2022-10-30T06:53:22;18.48;;;8.35;;
69008;SDS011;56065;52.472;13.380;2022-10-30T06:55:57;20.77;;;8.93;;
69008;SDS011;56065;52.472;13.380;2022-10-30T06:58:27;21.30;;;9.18;;
69008;SDS011;56065;52.472;13.380;2022-10-30T07:00:53;18.65;;;8.80;;
69008;SDS011;56065;52.472;13.380;2022-10-30T07:03:19;18.10;;;8.48;;
69008;SDS011;56065;52.472;13.380;2022-10-30T07:05:45;19.50;;;8.83;;
69008;SDS011;56065;52.472;13.380;2022-10-30T07:08:11;19.85;;;9.20;;
69008;SDS011;56065;52.472;13.380;2022-10-30T07:10:36;22.70;;;9.63;;
69008;SDS011;56065;52.472;13.380;2022-10-30T07:13:02;19.27;;;9.47;;
69008;SDS011;56065;52.472;13.380;2022-10-30T07:15:27;18.13;;;8.75;;
69008;SDS011;56065;52.472;13.380;2022-10-30T07:17:53;17.43;;;8.50;;
69008;SDS011;56065;52.472;13.380;2022-10-30T07:20:23;19.70;;;9.60;;
69008;SDS011;56065;52.472;13.380;2022-10-30T07:22:50;18.15;;;9.07;;
69008;SDS011;56065;52.472;13.380;2022-10-30T07:25:15;20.00;;;9.00;;
69008;SDS011;56065;52.472;13.380;2022-10-30T07:27:44;22.23;;;9.47;;
69008;SDS011;56065;52.472;13.380;2022-10-30T07:30:11;23.50;;;9.50;;
69008;SDS011;56065;52.472;13.380;2022-10-30T07:32:37;20.13;;;9.30;;
69008;SDS011;56065;52.472;13.380;2022-10-30T07:35:03;20.13;;;8.97;;
69008;SDS011;56065;52.472;13.380;2022-10-30T07:37:29;16.70;;;9.02;;
69008;SDS011;56065;52.472;13.380;2022-10-30T07:39:54;17.73;;;8.70;;
69008;SDS011;56065;52.472;13.380;2022-10-30T07:42:20;17.40;;;8.80;;
69008;SDS011;56065;52.472;13.380;2022-10-30T07:44:45;18.67;;;9.40;;
69008;SDS011;56065;52.472;13.380;2022-10-30T07:47:11;15.90;;;8.23;;
69008;SDS011;56065;52.472;13.380;2022-10-30T07:49:36;18.73;;;8.47;;
69008;SDS011;56065;52.472;13.380;2022-10-30T07:52:01;17.07;;;7.73;;
69008;SDS011;56065;52.472;13.380;2022-10-30T07:54:27;20.88;;;8.18;;
69008;SDS011;56065;52.472;13.380;2022-10-30T07:56:52;18.17;;;8.60;;
69008;SDS011;56065;52.472;13.380;2022-10-30T07:59:17;17.43;;;7.90;;
69008;SDS011;56065;52.472;13.380;2022-10-30T08:01:43;16.90;;;7.60;;
69008;SDS011;56065;52.472;13.380;2022-10-30T08:04:08;16.47;;;8.00;;
69008;SDS011;56065;52.472;13.380;2022-10-30T08:06:35;17.77;;;7.32;;
69008;SDS011;56065;52.472;13.380;2022-10-30T08:09:00;21.37;;;7.93;;
69008;SDS011;56065;52.472;13.380;2022-10-30T08:11:26;16.10;;;7.40;;
69008;SDS011;56065;52.472;13.380;2022-10-30T08:13:51;15.00;;;7.13;;
69008;SDS011;56065;52.472;13.380;2022-10-30T08:16:16;21.57;;;8.43;;
69008;SDS011;56065;52.472;13.380;2022-10-30T08:18:42;19.40;;;7.87;;
69008;SDS011;56065;52.472;13.380;2022-10-30T08:21:08;17.20;;;7.82;;
69008;SDS011;56065;52.472;13.380;2022-10-30T08:23:33;16.20;;;7.47;;
69008;SDS011;56065;52.472;13.380;2022-10-30T08:25:59;16.52;;;7.40;;
69008;SDS011;56065;52.472;13.380;2022-10-30T08:28:25;19.17;;;7.63;;
69008;SDS011;56065;52.472;13.380;2022-10-30T08:30:50;17.92;;;8.50;;
69008;SDS011;56065;52.472;13.380;2022-10-30T08:33:15;16.50;;;7.30;;
69008;SDS011;56065;52.472;13.380;2022-10-30T08:35:50;13.63;;;6.73;;
69008;SDS011;56065;52.472;13.380;2022-10-30T08:38:20;17.42;;;7.35;;
69008;SDS011;56065;52.472;13.380;2022-10-30T08:40:46;19.17;;;7.30;;
69008;SDS011;56065;52.472;13.380;2022-10-30T08:43:11;16.58;;;7.28;;
69008;SDS011;56065;52.472;13.380;2022-10-30T08:45:37;18.63;;;7.40;;
69008;SDS011;56065;52.472;13.380;2022-10-30T08:48:03;14.77;;;6.60;;
69008;SDS011;56065;52.472;13.380;2022-10-30T08:50:30;17.83;;;6.87;;
69008;SDS011;56065;52.472;13.380;2022-10-30T08:53:03;18.25;;;7.20;;
69008;SDS011;56065;52.472;13.380;2022-10-30T08:55:31;14.55;;;6.63;;
69008;SDS011;56065;52.472;13.380;2022-10-30T08:57:57;15.98;;;7.13;;
69008;SDS011;56065;52.472;13.380;2022-10-30T09:00:23;15.88;;;7.32;;
69008;SDS011;56065;52.472;13.380;2022-10-30T09:02:48;14.47;;;6.30;;
69008;SDS011;56065;52.472;13.380;2022-10-30T09:05:14;14.80;;;6.70;;
69008;SDS011;56065;52.472;13.380;2022-10-30T09:07:39;16.02;;;7.20;;
69008;SDS011;56065;52.472;13.380;2022-10-30T09:10:05;14.67;;;6.40;;
69008;SDS011;56065;52.472;13.380;2022-10-30T09:12:31;28.90;;;8.97;;
69008;SDS011;56065;52.472;13.380;2022-10-30T09:14:56;25.33;;;7.82;;
69008;SDS011;56065;52.472;13.380;2022-10-30T09:17:22;15.97;;;7.20;;
69008;SDS011;56065;52.472;13.380;2022-10-30T09:19:47;18.53;;;7.10;;
69008;SDS011;56065;52.472;13.380;2022-10-30T09:22:13;16.13;;;7.10;;
69008;SDS011;56065;52.472;13.380;2022-10-30T09:24:38;15.27;;;6.10;;
69008;SDS011;56065;52.472;13.380;2022-10-30T09:27:04;16.17;;;5.83;;
69008;SDS011;56065;52.472;13.380;2022-10-30T09:29:30;13.88;;;6.15;;
69008;SDS011;56065;52.472;13.380;2022-10-30T09:31:56;16.50;;;5.90;;
69008;SDS011;56065;52.472;13.380;2022-10-30T09:34:24;15.23;;;6.22;;
69008;SDS011;56065;52.472;13.380;2022-10-30T09:36:51;17.27;;;7.68;;
69008;SDS011;56065;52.472;13.380;2022-10-30T09:39:16;15.73;;;6.90;;
69008;SDS011;56065;52.472;13.380;2022-10-30T09:41:52;15.40;;;5.70;;
69008;SDS011;56065;52.472;13.380;2022-10-30T09:44:39;15.63;;;6.50;;
69008;SDS011;56065;52.472;13.380;2022-10-30T09:47:30;14.73;;;5.68;;
69008;SDS011;56065;52.472;13.380;2022-10-30T09:51:00;13.23;;;6.32;;
69008;SDS011;56065;52.472;13.380;2022-10-30T10:04:42;13.77;;;5.40;;
69008;SDS011;56065;52.472;13.380;2022-10-30T10:07:24;13.00;;;5.70;;
69008;SDS011;56065;52.472;13.380;2022-10-30T10:09:56;12.48;;;5.47;;
69008;SDS011;56065;52.472;13.380;2022-10-30T10:12:32;12.00;;;5.60;;
69008;SDS011;56065;52.472;13.380;2022-10-30T10:15:04;19.05;;;5.97;;
69008;SDS011;56065;52.472;13.380;2022-10-30T10:17:37;17.38;;;8.52;;
69008;SDS011;56065;52.472;13.380;2022-10-30T10:20:10;16.67;;;6.10;;
69008;SDS011;56065;52.472;13.380;2022-10-30T10:22:49;14.25;;;5.68;;
69008;SDS011;56065;52.472;13.380;2022-10-30T10:25:16;12.98;;;5.22;;
69008;SDS011;56065;52.472;13.380;2022-10-30T10:27:55;16.48;;;6.28;;
69008;SDS011;56065;52.472;13.380;2022-10-30T10:41:22;12.63;;;4.70;;
69008;SDS011;56065;52.472;13.380;2022-10-30T10:51:50;14.90;;;4.37;;
69008;SDS011;56065;52.472;13.380;2022-10-30T10:57:06;13.70;;;4.15;;
69008;SDS011;56065;52.472;13.380;2022-10-30T10:59:36;10.98;;;4.10;;
69008;SDS011;56065;52.472;13.380;2022-10-30T11:04:49;18.17;;;4.70;;
69008;SDS011;56065;52.472;13.380;2022-10-30T11:07:19;14.80;;;4.70;;
69008;SDS011;56065;52.472;13.380;2022-10-30T11:09:45;14.40;;;5.10;;
69008;SDS011;56065;52.472;13.380;2022-10-30T11:12:15;21.40;;;4.88;;
69008;SDS011;56065;52.472;13.380;2022-10-30T11:14:43;11.88;;;4.40;;
69008;SDS011;56065;52.472;13.380;2022-10-30T11:19:44;13.20;;;4.13;;
69008;SDS011;56065;52.472;13.380;2022-10-30T11:22:20;15.13;;;4.83;;
69008;SDS011;56065;52.472;13.380;2022-10-30T11:24:53;15.65;;;4.68;;
69008;SDS011;56065;52.472;13.380;2022-10-30T11:32:26;13.52;;;4.10;;
69008;SDS011;56065;52.472;13.380;2022-10-30T11:37:34;11.47;;;4.53;;
69008;SDS011;56065;52.472;13.380;2022-10-30T11:40:06;15.23;;;4.75;;
69008;SDS011;56065;52.472;13.380;2022-10-30T11:42:37;13.45;;;5.38;;
69008;SDS011;56065;52.472;13.380;2022-10-30T11:45:04;14.05;;;4.00;;
69008;SDS011;56065;52.472;13.380;2022-10-30T11:47:36;13.98;;;4.93;;
69008;SDS011;56065;52.472;13.380;2022-10-30T11:50:06;13.50;;;4.67;;
69008;SDS011;56065;52.472;13.380;2022-10-30T11:52:50;13.77;;;4.55;;
69008;SDS011;56065;52.472;13.380;2022-10-30T11:55:36;14.85;;;4.78;;
69008;SDS011;56065;52.472;13.380;2022-10-30T11:58:04;11.30;;;4.30;;
69008;SDS011;56065;52.472;13.380;2022-10-30T12:00:33;11.40;;;3.80;;
69008;SDS011;56065;52.472;13.380;2022-10-30T12:03:01;13.17;;;4.43;;
69008;SDS011;56065;52.472;13.380;2022-10-30T12:10:34;10.90;;;4.15;;
69008;SDS011;56065;52.472;13.380;2022-10-30T12:13:04;11.70;;;3.83;;
69008;SDS011;56065;52.472;13.380;2022-10-30T12:15:31;12.30;;;4.18;;
69008;SDS011;56065;52.472;13.380;2022-10-30T12:18:03;12.43;;;4.32;;
69008;SDS011;56065;52.472;13.380;2022-10-30T12:20:31;14.95;;;4.22;;
69008;SDS011;56065;52.472;13.380;2022-10-30T12:23:11;13.50;;;4.47;;
69008;SDS011;56065;52.472;13.380;2022-10-30T12:25:40;12.57;;;4.00;;
69008;SDS011;56065;52.472;13.380;2022-10-30T12:28:15;8.93;;;3.58;;
69008;SDS011;56065;52.472;13.380;2022-10-30T12:33:34;14.88;;;4.28;;
69008;SDS011;56065;52.472;13.380;2022-10-30T12:36:09;12.40;;;4.25;;
69008;SDS011;56065;52.472;13.380;2022-10-30T12:38:44;11.53;;;3.83;;
69008;SDS011;56065;52.472;13.380;2022-10-30T12:41:27;13.77;;;4.00;;
69008;SDS011;56065;52.472;13.380;2022-10-30T12:44:00;16.48;;;4.05;;
69008;SDS011;56065;52.472;13.380;2022-10-30T12:46:37;16.55;;;4.78;;
69008;SDS011;56065;52.472;13.380;2022-10-30T12:52:02;10.33;;;4.27;;
69008;SDS011;56065;52.472;13.380;2022-10-30T12:57:16;14.43;;;5.18;;
69008;SDS011;56065;52.472;13.380;2022-10-30T12:59:47;17.15;;;4.53;;
69008;SDS011;56065;52.472;13.380;2022-10-30T13:02:35;21.38;;;5.00;;
69008;SDS011;56065;52.472;13.380;2022-10-30T13:08:09;12.73;;;4.97;;
69008;SDS011;56065;52.472;13.380;2022-10-30T13:11:13;15.88;;;4.30;;
69008;SDS011;56065;52.472;13.380;2022-10-30T13:13:46;11.45;;;4.20;;
69008;SDS011;56065;52.472;13.380;2022-10-30T13:16:21;17.48;;;3.83;;
69008;SDS011;56065;52.472;13.380;2022-10-30T13:18:51;16.27;;;4.40;;
69008;SDS011;56065;52.472;13.380;2022-10-30T13:21:25;11.88;;;3.90;;
69008;SDS011;56065;52.472;13.380;2022-10-30T13:26:43;13.57;;;3.97;;
69008;SDS011;56065;52.472;13.380;2022-10-30T13:32:21;12.80;;;4.30;;
69008;SDS011;56065;52.472;13.380;2022-10-30T13:51:49;12.43;;;4.03;;
69008;SDS011;56065;52.472;13.380;2022-10-30T13:54:29;12.05;;;3.90;;
69008;SDS011;56065;52.472;13.380;2022-10-30T13:57:00;11.25;;;3.70;;
69008;SDS011;56065;52.472;13.380;2022-10-30T13:59:51;16.17;;;4.10;;
69008;SDS011;56065;52.472;13.380;2022-10-30T14:04:56;15.80;;;4.05;;
69008;SDS011;56065;52.472;13.380;2022-10-30T14:12:50;14.67;;;3.90;;
69008;SDS011;56065;52.472;13.380;2022-10-30T14:15:25;16.08;;;4.45;;
69008;SDS011;56065;52.472;13.380;2022-10-30T14:20:37;17.95;;;4.57;;
69008;SDS011;56065;52.472;13.380;2022-10-30T14:25:36;14.47;;;4.57;;
69008;SDS011;56065;52.472;13.380;2022-10-30T14:28:01;16.23;;;4.15;;
69008;SDS011;56065;52.472;13.380;2022-10-30T14:30:27;17.10;;;4.77;;
69008;SDS011;56065;52.472;13.380;2022-10-30T14:32:53;18.10;;;4.47;;
69008;SDS011;56065;52.472;13.380;2022-10-30T14:35:28;13.33;;;4.43;;
69008;SDS011;56065;52.472;13.380;2022-10-30T14:45:58;13.80;;;4.13;;
69008;SDS011;56065;52.472;13.380;2022-10-30T14:48:31;16.40;;;4.40;;
69008;SDS011;56065;52.472;13.380;2022-10-30T14:51:50;15.73;;;4.85;;
69008;SDS011;56065;52.472;13.380;2022-10-30T14:56:51;16.05;;;4.43;;
69008;SDS011;56065;52.472;13.380;2022-10-30T15:07:17;18.55;;;5.00;;
69008;SDS011;56065;52.472;13.380;2022-10-30T15:10:02;19.25;;;5.40;;
69008;SDS011;56065;52.472;13.380;2022-10-30T15:15:02;19.90;;;6.37;;
69008;SDS011;56065;52.472;13.380;2022-10-30T15:17:40;15.13;;;5.35;;
69008;SDS011;56065;52.472;13.380;2022-10-30T15:20:22;15.82;;;5.43;;
69008;SDS011;56065;52.472;13.380;2022-10-30T15:22:56;19.10;;;5.65;;
69008;SDS011;56065;52.472;13.380;2022-10-30T15:25:25;18.63;;;6.15;;
69008;SDS011;56065;52.472;13.380;2022-10-30T15:27:57;15.17;;;5.30;;
69008;SDS011;56065;52.472;13.380;2022-10-30T15:30:23;16.88;;;5.57;;
69008;SDS011;56065;52.472;13.380;2022-10-30T15:32:50;15.60;;;6.03;;
69008;SDS011;56065;52.472;13.380;2022-10-30T15:35:17;16.90;;;4.87;;
69008;SDS011;56065;52.472;13.380;2022-10-30T15:37:59;16.48;;;5.15;;
69008;SDS011;56065;52.472;13.380;2022-10-30T15:40:26;18.92;;;5.10;;
69008;SDS011;56065;52.472;13.380;2022-10-30T15:42:53;13.38;;;4.35;;
69008;SDS011;56065;52.472;13.380;2022-10-30T15:45:33;14.80;;;5.37;;
69008;SDS011;56065;52.472;13.380;2022-10-30T15:53:26;15.23;;;5.30;;
69008;SDS011;56065;52.472;13.380;2022-10-30T15:55:59;17.73;;;5.88;;
69008;SDS011;56065;52.472;13.380;2022-10-30T15:58:24;15.03;;;5.13;;
69008;SDS011;56065;52.472;13.380;2022-10-30T16:00:54;13.10;;;4.60;;
69008;SDS011;56065;52.472;13.380;2022-10-30T16:03:21;14.68;;;4.85;;
69008;SDS011;56065;52.472;13.380;2022-10-30T16:05:46;17.43;;;5.37;;
69008;SDS011;56065;52.472;13.380;2022-10-30T16:08:29;14.60;;;5.50;;
69008;SDS011;56065;52.472;13.380;2022-10-30T16:10:54;20.47;;;6.07;;
69008;SDS011;56065;52.472;13.380;2022-10-30T16:13:29;14.25;;;5.60;;
69008;SDS011;56065;52.472;13.380;2022-10-30T16:15:55;17.77;;;6.03;;
69008;SDS011;56065;52.472;13.380;2022-10-30T16:18:22;19.77;;;6.03;;
69008;SDS011;56065;52.472;13.380;2022-10-30T16:20:55;18.67;;;5.65;;
69008;SDS011;56065;52.472;13.380;2022-10-30T16:23:26;24.63;;;8.98;;
69008;SDS011;56065;52.472;13.380;2022-10-30T16:25:52;16.57;;;6.17;;
69008;SDS011;56065;52.472;13.380;2022-10-30T16:30:56;17.88;;;6.30;;
69008;SDS011;56065;52.472;13.380;2022-10-30T16:33:28;17.47;;;6.23;;
69008;SDS011;56065;52.472;13.380;2022-10-30T16:35:56;19.48;;;6.90;;
69008;SDS011;56065;52.472;13.380;2022-10-30T16:38:22;21.95;;;6.82;;
69008;SDS011;56065;52.472;13.380;2022-10-30T16:40:51;19.65;;;7.22;;
69008;SDS011;56065;52.472;13.380;2022-10-30T16:45:53;27.60;;;11.30;;
69008;SDS011;56065;52.472;13.380;2022-10-30T16:48:22;28.48;;;14.27;;
69008;SDS011;56065;52.472;13.380;2022-10-30T16:50:57;31.25;;;15.55;;
69008;SDS011;56065;52.472;13.380;2022-10-30T16:53:25;34.47;;;16.40;;
69008;SDS011;56065;52.472;13.380;2022-10-30T16:55:51;43.30;;;19.67;;
69008;SDS011;56065;52.472;13.380;2022-10-30T16:58:18;42.17;;;20.33;;